Pensacola NAS, Florida
Current Conditions -  °F | °C
As of 10:56 AM on Thursday 30 Oct 2014 (Local Time) from KNPA Reporting Station
Clear Clear  
Wind Chill: 69°   Ceiling: Unl
Heat Index: 69°   Visibility: 10mi
Dew Point: 44°   Wind: 17mph
Humidity: 40%   Direction: 30°NNE
Pressure: 30.08"   Gusts: NA
Location:  30.35°N, 87.32°W
Report Text: KNPA 301556Z 03015KT 10SM CLR 21/07 A3008 RMK AO2 SLP186 T02060067 $
Loading
Personal Weather Stations






























Interactive Weather Map
Tropical Storm Tracking
New forecast layout! Learn more

10-Day Weather Forecast

Advertisements
Track Severe Weather on mobile